createdAt,value
2019-02-11T00:00:44.125Z,99449.45
2019-02-11T00:03:11.255Z,99461.64
2019-02-11T00:05:38.384Z,99482.13
2019-02-11T00:08:05.597Z,99479.77
2019-02-11T00:10:32.789Z,99492.47
2019-02-11T00:12:59.930Z,99500.48
2019-02-11T00:15:27.150Z,99486.20
2019-02-11T00:17:54.318Z,99497.90
2019-02-11T00:20:21.506Z,99490.65
2019-02-11T00:22:48.703Z,99504.57
2019-02-11T00:25:16.193Z,99512.80
2019-02-11T00:27:43.351Z,99512.77
2019-02-11T00:30:10.580Z,99510.41
2019-02-11T00:32:37.734Z,99521.45
2019-02-11T00:35:05.239Z,99518.63
2019-02-11T00:37:32.732Z,99518.02
2019-02-11T00:39:59.949Z,99532.53
2019-02-11T00:42:27.100Z,99538.85
2019-02-11T00:44:54.339Z,99532.42
2019-02-11T00:47:21.504Z,99547.17
2019-02-11T00:49:48.662Z,99558.72
2019-02-11T00:52:15.842Z,99566.32
2019-02-11T00:54:43.084Z,99567.64
2019-02-11T00:57:10.285Z,99579.41
2019-02-11T00:59:37.549Z,99574.52
2019-02-11T01:02:04.710Z,99583.66
2019-02-11T01:04:32.080Z,99584.82
2019-02-11T01:06:59.583Z,99597.30
2019-02-11T01:09:26.797Z,99598.25
2019-02-11T01:11:53.997Z,99607.09
2019-02-11T01:14:21.218Z,99600.91
2019-02-11T01:16:48.366Z,99621.43
2019-02-11T01:19:15.610Z,99629.02
2019-02-11T01:21:42.783Z,99640.95
2019-02-11T01:24:10.018Z,99644.47
2019-02-11T01:26:37.193Z,99649.59
2019-02-11T01:29:04.440Z,99655.15
2019-02-11T01:31:31.584Z,99655.69
2019-02-11T01:33:58.749Z,99658.56
2019-02-11T01:36:26.080Z,99674.94
2019-02-11T01:38:53.527Z,99676.32
2019-02-11T01:41:20.709Z,99686.54
2019-02-11T01:43:47.913Z,99686.00
2019-02-11T01:46:15.097Z,99695.95
2019-02-11T01:48:42.571Z,99704.48
2019-02-11T01:51:09.781Z,99708.56
2019-02-11T01:53:36.937Z,99722.92
2019-02-11T01:56:04.114Z,99723.67
2019-02-11T01:58:31.735Z,99719.31
2019-02-11T02:00:58.938Z,99724.48
2019-02-11T02:03:26.110Z,99731.42
2019-02-11T02:05:53.223Z,99734.63
2019-02-11T02:08:20.671Z,99741.41
2019-02-11T02:10:47.852Z,99744.05
2019-02-11T02:13:15.065Z,99749.71
2019-02-11T02:15:42.219Z,99753.56
2019-02-11T02:18:09.402Z,99765.63
2019-02-11T02:20:36.770Z,99771.23
2019-02-11T02:23:03.909Z,99774.86
2019-02-11T02:25:31.058Z,99768.55
2019-02-11T02:27:58.307Z,99776.00
2019-02-11T02:30:25.443Z,99782.28
2019-02-11T02:32:52.496Z,99782.44
2019-02-11T02:35:19.718Z,99785.28
2019-02-11T02:37:46.938Z,99795.41
2019-02-11T02:40:14.086Z,99795.28
2019-02-11T02:42:41.314Z,99804.09
2019-02-11T02:45:08.708Z,99811.30
2019-02-11T02:47:35.918Z,99816.42
2019-02-11T02:50:03.205Z,99816.69
2019-02-11T02:52:30.364Z,99815.98
2019-02-11T02:54:57.546Z,99828.59
2019-02-11T02:57:24.724Z,99831.40
2019-02-11T02:59:51.942Z,99839.72
2019-02-11T03:02:19.099Z,99848.40
2019-02-11T03:04:46.346Z,99851.41
2019-02-11T03:07:13.714Z,99859.84
2019-02-11T03:09:40.899Z,99857.06
2019-02-11T03:12:08.097Z,99863.91
2019-02-11T03:14:35.265Z,99873.28
2019-02-11T03:17:02.457Z,99870.94
2019-02-11T03:19:29.636Z,99880.24
2019-02-11T03:21:56.821Z,99887.23
2019-02-11T03:24:23.975Z,99891.91
2019-02-11T03:26:51.204Z,99903.17
2019-02-11T03:29:18.366Z,99904.56
2019-02-11T03:31:45.841Z,99903.87
2019-02-11T03:34:13.279Z,99915.95
2019-02-11T03:36:40.466Z,99918.69
2019-02-11T03:39:07.662Z,99920.95
2019-02-11T03:41:34.863Z,99931.02
2019-02-11T03:44:02.094Z,99943.09
2019-02-11T03:46:29.320Z,99939.42
2019-02-11T03:48:56.527Z,99959.66
2019-02-11T03:51:23.670Z,99962.97
2019-02-11T03:53:50.940Z,99964.08
2019-02-11T03:56:18.131Z,99965.94
2019-02-11T03:58:45.276Z,99970.52
2019-02-11T04:01:12.482Z,99973.34
2019-02-11T04:03:39.647Z,99978.16
2019-02-11T04:06:06.876Z,99983.80
2019-02-11T04:08:34.921Z,99993.17
2019-02-11T04:11:02.203Z,99994.41
2019-02-11T04:13:29.651Z,99997.07
2019-02-11T04:15:56.839Z,100005.58
2019-02-11T04:18:24.374Z,100015.66
2019-02-11T04:20:51.437Z,100018.92
2019-02-11T04:23:18.642Z,100026.66
2019-02-11T04:25:45.849Z,100035.68
2019-02-11T04:28:13.003Z,100044.55
2019-02-11T04:30:40.151Z,100049.48
2019-02-11T04:33:07.253Z,100059.34
2019-02-11T04:35:34.331Z,100056.44
2019-02-11T04:38:01.463Z,100069.61
2019-02-11T04:40:28.659Z,100073.70
2019-02-11T04:42:56.087Z,100074.27
2019-02-11T04:45:23.219Z,100081.88
2019-02-11T04:47:50.372Z,100084.94
2019-02-11T04:50:17.596Z,100089.15
2019-02-11T04:52:46.576Z,100099.19
2019-02-11T04:55:13.819Z,100095.03
2019-02-11T04:57:40.960Z,100099.31
2019-02-11T05:00:08.592Z,100111.52
2019-02-11T05:02:35.805Z,100107.23
2019-02-11T05:05:03.514Z,100114.98
2019-02-11T05:07:30.670Z,100110.55
2019-02-11T05:09:57.890Z,100118.02
2019-02-11T05:12:25.069Z,100112.23
2019-02-11T05:14:52.252Z,100112.64
2019-02-11T05:17:19.609Z,100117.86
2019-02-11T05:19:46.768Z,100122.16
2019-02-11T05:22:13.981Z,100117.08
2019-02-11T05:24:41.145Z,100128.95
2019-02-11T05:27:08.341Z,100135.44
2019-02-11T05:29:35.508Z,100146.27
2019-02-11T05:32:02.716Z,100148.52
2019-02-11T05:34:29.855Z,100149.80
2019-02-11T05:36:57.088Z,100154.28
2019-02-11T05:39:24.356Z,100153.82
2019-02-11T05:41:51.568Z,100158.84
2019-02-11T05:44:19.018Z,100161.92
2019-02-11T05:46:46.276Z,100167.50
2019-02-11T05:49:13.564Z,100169.17
2019-02-11T05:51:40.751Z,100172.52
2019-02-11T05:54:08.040Z,100168.20
2019-02-11T05:56:35.222Z,100173.42
2019-02-11T05:59:02.436Z,100176.13
2019-02-11T06:01:29.700Z,100186.14
2019-02-11T06:03:56.766Z,100189.13
2019-02-11T06:06:23.980Z,100193.77
2019-02-11T06:08:51.160Z,100196.89
2019-02-11T06:11:18.380Z,100195.38
2019-02-11T06:13:45.610Z,100202.47
2019-02-11T06:16:12.826Z,100209.00
2019-02-11T06:18:39.947Z,100210.76
2019-02-11T06:21:07.132Z,100225.67
2019-02-11T06:23:34.324Z,100235.57
2019-02-11T06:26:01.513Z,100247.09
2019-02-11T06:28:28.716Z,100245.35
2019-02-11T06:30:56.258Z,100246.13
2019-02-11T06:33:23.732Z,100260.22
2019-02-11T06:35:50.896Z,100264.52
2019-02-11T06:38:18.114Z,100261.99
2019-02-11T06:40:45.548Z,100278.05
2019-02-11T06:43:12.706Z,100283.11
2019-02-11T06:45:39.832Z,100292.27
2019-02-11T06:48:06.977Z,100293.20
2019-02-11T06:50:34.391Z,100300.47
2019-02-11T06:53:01.591Z,100302.34
2019-02-11T06:55:28.773Z,100310.92
2019-02-11T06:57:55.965Z,100310.65
2019-02-11T07:00:23.223Z,100314.01
2019-02-11T07:02:50.285Z,100319.78
2019-02-11T07:05:17.435Z,100326.55
2019-02-11T07:07:44.922Z,100334.78
2019-02-11T07:10:12.084Z,100337.62
2019-02-11T07:12:39.254Z,100358.43
2019-02-11T07:15:08.208Z,100357.05
2019-02-11T07:17:35.720Z,100355.06
2019-02-11T07:20:03.517Z,100359.34
2019-02-11T07:22:30.723Z,100367.26
2019-02-11T07:24:57.904Z,100368.58
2019-02-11T07:27:24.999Z,100380.55
2019-02-11T07:29:52.223Z,100378.83
2019-02-11T07:32:19.372Z,100401.80
2019-02-11T07:34:46.549Z,100396.87
2019-02-11T07:37:13.777Z,100408.28
2019-02-11T07:39:40.926Z,100414.16
2019-02-11T07:42:36.563Z,100420.62
2019-02-11T07:45:13.230Z,100428.54
2019-02-11T07:47:40.916Z,100432.77
2019-02-11T07:50:08.098Z,100445.28
2019-02-11T07:52:35.272Z,100432.50
2019-02-11T07:55:02.774Z,100447.80
2019-02-11T07:57:30.261Z,100446.10
2019-02-11T07:59:57.481Z,100462.50
2019-02-11T08:02:24.669Z,100463.42
2019-02-11T08:04:52.093Z,100469.48
2019-02-11T08:07:19.319Z,100476.05
2019-02-11T08:09:46.544Z,100482.80
2019-02-11T08:12:13.971Z,100483.08
2019-02-11T08:14:41.073Z,100492.43
2019-02-11T08:17:08.277Z,100506.59
2019-02-11T08:19:35.378Z,100504.22
2019-02-11T08:22:02.587Z,100516.53
2019-02-11T08:24:29.789Z,100525.50
2019-02-11T08:26:56.956Z,100535.05
2019-02-11T08:29:24.155Z,100538.30
2019-02-11T08:31:51.607Z,100550.20
2019-02-11T08:34:18.763Z,100550.09
2019-02-11T08:36:46.200Z,100550.35
2019-02-11T08:39:13.429Z,100556.85
2019-02-11T08:41:40.911Z,100548.05
2019-02-11T08:44:08.080Z,100547.46
2019-02-11T08:46:35.301Z,100560.94
2019-02-11T08:49:02.504Z,100576.01
2019-02-11T08:51:29.683Z,100563.50
2019-02-11T08:53:56.892Z,100574.78
2019-02-11T08:56:24.076Z,100582.14
2019-02-11T08:58:51.236Z,100574.98
2019-02-11T09:01:18.384Z,100592.67
2019-02-11T09:03:45.876Z,100597.92
2019-02-11T09:06:13.070Z,100595.48
2019-02-11T09:08:40.315Z,100594.73
2019-02-11T09:11:07.483Z,100604.81
2019-02-11T09:13:34.702Z,100604.40
2019-02-11T09:16:02.072Z,100611.38
2019-02-11T09:18:29.233Z,100624.04
2019-02-11T09:20:56.320Z,100625.39
2019-02-11T09:23:23.561Z,100634.73
2019-02-11T09:25:50.719Z,100639.77
2019-02-11T09:28:18.256Z,100652.56
2019-02-11T09:30:45.452Z,100654.06
2019-02-11T09:33:12.642Z,100654.72
2019-02-11T09:35:40.046Z,100653.56
2019-02-11T09:38:07.184Z,100661.84
2019-02-11T09:40:34.359Z,100664.48
2019-02-11T09:43:01.789Z,100673.52
2019-02-11T09:45:29.073Z,100672.56
2019-02-11T09:47:56.451Z,100671.88
2019-02-11T09:50:26.874Z,100684.12
2019-02-11T09:52:54.918Z,100692.98
2019-02-11T09:55:27.001Z,100694.91
2019-02-11T09:57:54.198Z,100695.55
2019-02-11T10:00:21.612Z,100704.56
2019-02-11T10:02:48.778Z,100716.64
2019-02-11T10:05:15.966Z,100716.10
2019-02-11T10:07:43.146Z,100723.44
2019-02-11T10:10:10.443Z,100732.86
2019-02-11T10:12:37.615Z,100732.25
2019-02-11T10:15:06.836Z,100732.91
2019-02-11T10:17:33.986Z,100736.17
2019-02-11T10:20:01.150Z,100748.52
2019-02-11T10:22:28.558Z,100757.84
2019-02-11T10:24:55.663Z,100756.84
2019-02-11T10:27:22.832Z,100752.04
2019-02-11T10:29:50.254Z,100771.70
2019-02-11T10:32:17.476Z,100772.05
2019-02-11T10:34:44.640Z,100767.93
2019-02-11T10:37:11.876Z,100773.41
2019-02-11T10:39:39.033Z,100780.50
2019-02-11T10:42:06.188Z,100779.88
2019-02-11T10:44:33.555Z,100780.34
2019-02-11T10:47:00.721Z,100791.30
2019-02-11T10:49:27.884Z,100800.20
2019-02-11T10:51:55.094Z,100804.45
2019-02-11T10:54:22.272Z,100815.27
2019-02-11T10:56:49.468Z,100807.45
2019-02-11T10:59:16.658Z,100812.61
2019-02-11T11:01:43.831Z,100820.31
2019-02-11T11:04:11.274Z,100822.88
2019-02-11T11:06:38.684Z,100820.87
2019-02-11T11:09:09.470Z,100818.88
2019-02-11T11:11:36.555Z,100830.72
2019-02-11T11:14:03.753Z,100831.00
2019-02-11T11:16:31.212Z,100823.16
2019-02-11T11:18:58.407Z,100831.08
2019-02-11T11:21:25.631Z,100829.11
2019-02-11T11:23:52.822Z,100826.34
2019-02-11T11:26:20.381Z,100829.02
2019-02-11T11:28:47.774Z,100827.05
2019-02-11T11:31:15.254Z,100825.34
2019-02-11T11:33:42.413Z,100825.02
2019-02-11T11:36:09.633Z,100829.55
2019-02-11T11:38:36.823Z,100833.47
2019-02-11T11:41:04.338Z,100839.48
2019-02-11T11:43:31.539Z,100854.20
2019-02-11T11:45:58.734Z,100848.32
2019-02-11T11:48:25.933Z,100859.14
2019-02-11T11:50:53.056Z,100854.50
2019-02-11T11:53:20.212Z,100868.45
2019-02-11T11:55:47.450Z,100866.80
2019-02-11T11:58:14.971Z,100874.98
2019-02-11T12:00:42.154Z,100879.88
2019-02-11T12:03:09.297Z,100880.91
2019-02-11T12:05:36.396Z,100890.63
2019-02-11T12:08:03.626Z,100892.92
2019-02-11T12:10:31.048Z,100900.12
2019-02-11T12:12:58.353Z,100898.66
2019-02-11T12:15:25.732Z,100902.16
2019-02-11T12:17:52.828Z,100905.52
2019-02-11T12:20:20.016Z,100904.34
2019-02-11T12:22:47.265Z,100906.73
2019-02-11T12:25:14.746Z,100903.98
2019-02-11T12:27:42.047Z,100918.25
2019-02-11T12:30:14.591Z,100917.07
2019-02-11T12:32:41.814Z,100918.36
2019-02-11T12:35:09.824Z,100915.72
2019-02-11T12:37:37.004Z,100910.44
2019-02-11T12:40:04.871Z,100908.80
2019-02-11T12:42:32.099Z,100907.73
2019-02-11T12:44:59.930Z,100911.42
2019-02-11T12:47:27.146Z,100917.38
2019-02-11T12:49:54.682Z,100918.77
2019-02-11T12:52:22.160Z,100923.57
2019-02-11T12:54:49.345Z,100921.47
2019-02-11T12:57:16.880Z,100920.12
2019-02-11T12:59:44.643Z,100922.95
2019-02-11T13:02:11.822Z,100930.62
2019-02-11T13:04:39.008Z,100945.97
2019-02-11T13:07:06.167Z,100942.88
2019-02-11T13:09:33.710Z,100941.19
2019-02-11T13:12:01.112Z,100942.64
2019-02-11T13:14:28.292Z,100947.02
2019-02-11T13:16:55.400Z,100944.72
2019-02-11T13:19:22.597Z,100946.13
2019-02-11T13:21:49.823Z,100947.72
2019-02-11T13:24:17.001Z,100948.60
2019-02-11T13:26:44.540Z,100949.55
2019-02-11T13:29:11.731Z,100977.27
2019-02-11T13:31:38.932Z,100977.13
2019-02-11T13:34:06.140Z,100985.29
2019-02-11T13:36:33.321Z,100984.65
2019-02-11T13:39:00.537Z,100989.37
2019-02-11T13:41:28.241Z,100996.13
2019-02-11T13:43:55.384Z,101000.03
2019-02-11T13:46:22.692Z,100998.59
2019-02-11T13:48:50.537Z,100993.23
2019-02-11T13:51:17.939Z,100989.17
2019-02-11T13:53:45.068Z,101001.02
2019-02-11T13:56:12.276Z,100999.74
2019-02-11T13:58:39.378Z,101005.23
2019-02-11T14:01:09.479Z,101007.55
2019-02-11T14:03:36.767Z,101009.17
2019-02-11T14:06:04.012Z,101015.81
2019-02-11T14:08:31.211Z,101023.98
2019-02-11T14:10:58.413Z,101031.09
2019-02-11T14:13:25.636Z,101037.08
2019-02-11T14:15:52.814Z,101034.70
2019-02-11T14:18:20.074Z,101039.06
2019-02-11T14:20:50.063Z,101057.58
2019-02-11T14:23:16.340Z,101068.38
2019-02-11T14:25:47.048Z,101071.98
2019-02-11T14:28:12.831Z,101080.07
2019-02-11T14:30:39.990Z,101082.47
2019-02-11T14:33:07.391Z,101089.28
2019-02-11T14:35:34.738Z,101093.83
2019-02-11T14:38:03.025Z,101098.70
2019-02-11T14:40:30.665Z,101095.05
2019-02-11T14:42:58.885Z,101104.36
2019-02-11T14:45:26.515Z,101096.00
2019-02-11T14:47:54.066Z,101096.58
2019-02-11T14:50:21.400Z,101096.19
2019-02-11T14:52:48.778Z,101105.97
2019-02-11T14:55:16.435Z,101117.05
2019-02-11T14:57:43.617Z,101109.27
2019-02-11T15:00:16.545Z,101122.74
2019-02-11T15:02:43.745Z,101133.88
2019-02-11T15:05:10.918Z,101140.27
2019-02-11T15:07:38.193Z,101141.48
2019-02-11T15:10:06.099Z,101146.80
2019-02-11T15:12:34.292Z,101152.27
2019-02-11T15:15:01.563Z,101152.73
2019-02-11T15:17:28.894Z,101154.83
2019-02-11T15:19:56.085Z,101152.21
2019-02-11T15:22:23.207Z,101171.80
2019-02-11T15:24:50.352Z,101161.28
2019-02-11T15:27:17.585Z,101173.45
2019-02-11T15:29:44.760Z,101185.39
2019-02-11T15:32:11.984Z,101193.27
2019-02-11T15:34:39.170Z,101195.11
2019-02-11T15:37:06.374Z,101210.14
2019-02-11T15:39:33.856Z,101220.52
2019-02-11T15:42:01.074Z,101222.35
2019-02-11T15:44:28.342Z,101226.23
2019-02-11T15:46:55.557Z,101230.21
2019-02-11T15:49:22.751Z,101235.16
2019-02-11T15:51:50.003Z,101234.19
2019-02-11T15:54:17.205Z,101228.08
2019-02-11T15:56:44.439Z,101233.81
2019-02-11T15:59:11.947Z,101249.95
2019-02-11T16:01:39.463Z,101249.83
2019-02-11T16:04:06.541Z,101255.05
2019-02-11T16:06:38.171Z,101250.01
2019-02-11T16:09:04.847Z,101259.14
2019-02-11T16:11:35.735Z,101264.67
2019-02-11T16:14:03.330Z,101279.87
2019-02-11T16:16:30.518Z,101284.55
2019-02-11T16:18:57.677Z,101285.09
2019-02-11T16:21:24.930Z,101294.96
2019-02-11T16:23:52.125Z,101303.34
2019-02-11T16:26:19.340Z,101303.20
2019-02-11T16:28:46.596Z,101300.87
2019-02-11T16:31:13.845Z,101315.21
2019-02-11T16:33:40.992Z,101308.14
2019-02-11T16:36:09.004Z,101307.80
2019-02-11T16:38:36.152Z,101312.17
2019-02-11T16:41:03.361Z,101315.90
2019-02-11T16:43:30.586Z,101320.77
2019-02-11T16:45:58.043Z,101325.28
2019-02-11T16:48:25.215Z,101338.80
2019-02-11T16:50:52.389Z,101335.78
2019-02-11T16:53:19.635Z,101351.72
2019-02-11T16:55:46.990Z,101351.42
2019-02-11T16:58:14.643Z,101363.80
2019-02-11T17:00:41.827Z,101369.66
2019-02-11T17:03:09.035Z,101377.84
2019-02-11T17:05:36.129Z,101380.95
2019-02-11T17:08:03.665Z,101388.28
2019-02-11T17:10:30.853Z,101384.30
2019-02-11T17:12:58.081Z,101391.86
2019-02-11T17:15:25.225Z,101407.69
2019-02-11T17:17:52.574Z,101406.31
2019-02-11T17:20:19.777Z,101418.69
2019-02-11T17:22:47.027Z,101424.68
2019-02-11T17:25:14.480Z,101434.94
2019-02-11T17:27:41.745Z,101446.12
2019-02-11T17:30:11.795Z,101450.16
2019-02-11T17:32:38.856Z,101458.39
2019-02-11T17:35:06.782Z,101463.97
2019-02-11T17:37:33.974Z,101476.48
2019-02-11T17:40:01.165Z,101498.18
2019-02-11T17:42:28.471Z,101499.36
2019-02-11T17:44:55.696Z,101508.23
2019-02-11T17:47:22.903Z,101522.10
2019-02-11T17:49:50.084Z,101514.94
2019-02-11T17:52:17.348Z,101522.60
2019-02-11T17:54:44.822Z,101533.26
2019-02-11T17:57:12.014Z,101536.84
2019-02-11T17:59:39.624Z,101535.53
2019-02-11T18:02:10.402Z,101535.73
2019-02-11T18:04:37.633Z,101538.12
2019-02-11T18:07:04.842Z,101548.91
2019-02-11T18:09:32.051Z,101555.63
2019-02-11T18:11:59.595Z,101557.52
2019-02-11T18:14:26.660Z,101576.00
2019-02-11T18:16:53.889Z,101577.32
2019-02-11T18:19:26.364Z,101588.01
2019-02-11T18:21:50.635Z,101593.14
2019-02-11T18:24:17.818Z,101592.75
2019-02-11T18:26:45.052Z,101602.82
2019-02-11T18:29:12.223Z,101592.67
2019-02-11T18:31:39.493Z,101603.40
2019-02-11T18:34:06.951Z,101604.05
2019-02-11T18:36:34.121Z,101617.27
2019-02-11T18:39:01.571Z,101618.72
2019-02-11T18:41:29.219Z,101613.53
2019-02-11T18:43:56.420Z,101623.67
2019-02-11T18:46:23.620Z,101627.66
2019-02-11T18:48:50.830Z,101640.30
2019-02-11T18:51:18.104Z,101640.49
2019-02-11T18:53:45.287Z,101652.85
2019-02-11T18:56:12.408Z,101660.81
2019-02-11T18:58:39.673Z,101660.53
2019-02-11T19:01:06.773Z,101671.63
2019-02-11T19:03:34.008Z,101672.38
2019-02-11T19:06:01.086Z,101677.05
2019-02-11T19:08:28.323Z,101686.09
2019-02-11T19:10:55.648Z,101687.23
2019-02-11T19:13:22.835Z,101690.47
2019-02-11T19:15:50.030Z,101689.91
2019-02-11T19:18:17.248Z,101684.42
2019-02-11T19:20:44.331Z,101691.37
2019-02-11T19:23:11.800Z,101701.83
2019-02-11T19:25:39.067Z,101701.83
2019-02-11T19:28:06.216Z,101698.64
2019-02-11T19:30:33.443Z,101709.30
2019-02-11T19:33:00.805Z,101700.12
2019-02-11T19:35:28.047Z,101692.65
2019-02-11T19:37:55.170Z,101695.22
2019-02-11T19:40:22.408Z,101697.03
2019-02-11T19:42:49.503Z,101700.92
2019-02-11T19:45:17.555Z,101698.31
2019-02-11T19:47:44.645Z,101704.81
2019-02-11T19:50:12.727Z,101696.59
2019-02-11T19:52:39.939Z,101701.10
2019-02-11T19:55:08.039Z,101710.47
2019-02-11T19:57:35.254Z,101716.20
2019-02-11T20:00:02.613Z,101731.66
2019-02-11T20:02:29.881Z,101728.37
2019-02-11T20:04:57.154Z,101736.55
2019-02-11T20:07:24.368Z,101739.92
2019-02-11T20:09:51.599Z,101742.55
2019-02-11T20:12:18.793Z,101748.23
2019-02-11T20:14:46.003Z,101750.70
2019-02-11T20:17:13.257Z,101748.84
2019-02-11T20:19:40.395Z,101755.16
2019-02-11T20:22:07.599Z,101752.05
2019-02-11T20:24:34.722Z,101744.34
2019-02-11T20:27:01.890Z,101745.84
2019-02-11T20:29:29.094Z,101747.95
2019-02-11T20:31:56.290Z,101738.20
2019-02-11T20:34:25.151Z,101732.90
2019-02-11T20:36:52.385Z,101738.09
2019-02-11T20:39:19.615Z,101753.59
2019-02-11T20:41:46.939Z,101754.67
2019-02-11T20:44:14.430Z,101753.73
2019-02-11T20:46:41.680Z,101751.16
2019-02-11T20:49:09.131Z,101748.59
2019-02-11T20:51:36.305Z,101753.11
2019-02-11T20:54:03.528Z,101749.49
2019-02-11T20:56:30.609Z,101751.08
2019-02-11T20:58:57.804Z,101764.02
2019-02-11T21:01:24.926Z,101774.70
2019-02-11T21:03:52.112Z,101764.85
2019-02-11T21:06:19.195Z,101772.23
2019-02-11T21:08:46.452Z,101765.22
2019-02-11T21:11:13.661Z,101751.50
2019-02-11T21:13:40.844Z,101749.00
2019-02-11T21:16:08.388Z,101761.41
2019-02-11T21:18:35.904Z,101764.95
2019-02-11T21:21:03.001Z,101774.22
2019-02-11T21:23:30.204Z,101778.87
2019-02-11T21:25:57.424Z,101792.41
2019-02-11T21:28:24.648Z,101798.83
2019-02-11T21:30:52.053Z,101811.55
2019-02-11T21:33:19.220Z,101805.33
2019-02-11T21:35:46.970Z,101805.45
2019-02-11T21:38:14.206Z,101820.70
2019-02-11T21:40:41.415Z,101838.23
2019-02-11T21:43:08.526Z,101853.73
2019-02-11T21:45:35.787Z,101855.93
2019-02-11T21:48:02.854Z,101861.76
2019-02-11T21:50:30.262Z,101875.73
2019-02-11T21:52:57.513Z,101893.09
2019-02-11T21:55:24.742Z,101880.47
2019-02-11T21:57:51.874Z,101884.91
2019-02-11T22:00:19.139Z,101889.41
2019-02-11T22:02:46.355Z,101897.11
2019-02-11T22:05:13.626Z,101900.89
2019-02-11T22:07:40.868Z,101914.39
2019-02-11T22:10:09.695Z,101906.64
2019-02-11T22:12:36.872Z,101902.90
2019-02-11T22:15:04.585Z,101910.54
2019-02-11T22:17:32.071Z,101909.53
2019-02-11T22:19:59.257Z,101908.70
2019-02-11T22:22:26.750Z,101900.65
2019-02-11T22:24:54.127Z,101916.80
2019-02-11T22:27:21.349Z,101918.34
2019-02-11T22:29:48.465Z,101912.45
2019-02-11T22:32:15.779Z,101911.75
2019-02-11T22:34:42.945Z,101913.59
2019-02-11T22:37:10.243Z,101920.11
2019-02-11T22:39:37.539Z,101912.97
2019-02-11T22:42:04.738Z,101913.78
2019-02-11T22:44:31.917Z,101912.13
2019-02-11T22:46:59.129Z,101911.54
2019-02-11T22:49:26.325Z,101911.03
2019-02-11T22:51:53.565Z,101917.02
2019-02-11T22:54:20.753Z,101922.19
2019-02-11T22:56:47.944Z,101921.55
2019-02-11T22:59:15.354Z,101931.70
2019-02-11T23:01:42.608Z,101938.81
2019-02-11T23:04:10.072Z,101951.88
2019-02-11T23:06:37.171Z,101953.86
2019-02-11T23:09:06.460Z,101953.19
2019-02-11T23:11:33.688Z,101964.02
2019-02-11T23:14:00.976Z,101980.62
2019-02-11T23:16:28.459Z,101989.06
2019-02-11T23:18:55.642Z,102001.25
2019-02-11T23:21:22.881Z,102004.55
2019-02-11T23:23:50.063Z,102005.66
2019-02-11T23:26:17.204Z,102004.56
2019-02-11T23:28:44.422Z,102002.56
2019-02-11T23:31:11.682Z,102007.80
2019-02-11T23:33:38.894Z,102018.27
2019-02-11T23:36:06.108Z,102018.70
2019-02-11T23:38:33.299Z,102017.39
2019-02-11T23:41:00.538Z,102027.69
2019-02-11T23:43:27.845Z,102030.29
2019-02-11T23:45:54.985Z,102030.70
2019-02-11T23:48:22.056Z,102033.27
2019-02-11T23:50:49.166Z,102036.36
2019-02-11T23:53:16.258Z,102030.27
2019-02-11T23:55:43.706Z,102029.09
2019-02-11T23:58:10.939Z,102023.05
